createdAt,value
2019-06-10T00:01:21.364Z,102032.11
2019-06-10T00:03:52.048Z,102023.54
2019-06-10T00:06:22.411Z,102021.38
2019-06-10T00:08:53.789Z,102018.04
2019-06-10T00:11:24.343Z,102019.15
2019-06-10T00:13:54.822Z,102008.28
2019-06-10T00:16:25.275Z,102003.73
2019-06-10T00:18:55.694Z,102005.08
2019-06-10T00:21:25.931Z,101997.77
2019-06-10T00:23:57.528Z,101992.23
2019-06-10T00:26:28.067Z,101997.16
2019-06-10T00:28:58.259Z,101991.16
2019-06-10T00:31:28.498Z,101982.02
2019-06-10T00:34:01.325Z,101983.57
2019-06-10T00:36:30.948Z,101983.20
2019-06-10T00:39:03.516Z,101982.72
2019-06-10T00:41:34.244Z,101984.55
2019-06-10T00:44:05.664Z,101975.17
2019-06-10T00:46:36.861Z,101981.08
2019-06-10T00:49:08.159Z,101981.88
2019-06-10T00:51:41.335Z,101971.53
2019-06-10T00:54:15.081Z,101969.88
2019-06-10T00:56:44.256Z,101968.73
2019-06-10T00:59:15.321Z,101960.57
2019-06-10T01:01:45.963Z,101947.22
2019-06-10T01:04:16.684Z,101951.61
2019-06-10T01:06:46.830Z,101950.23
2019-06-10T01:09:18.252Z,101942.13
2019-06-10T01:11:48.695Z,101945.31
2019-06-10T01:14:21.531Z,101942.37
2019-06-10T01:16:52.036Z,101939.37
2019-06-10T01:19:22.297Z,101938.34
2019-06-10T01:21:52.568Z,101934.83
2019-06-10T01:24:22.821Z,101928.67
2019-06-10T01:26:53.010Z,101919.57
2019-06-10T01:29:23.382Z,101909.98
2019-06-10T01:31:53.801Z,101914.42
2019-06-10T01:34:25.251Z,101911.52
2019-06-10T01:36:55.690Z,101913.19
2019-06-10T01:39:27.993Z,101909.31
2019-06-10T01:41:58.029Z,101907.73
2019-06-10T01:44:30.798Z,101903.94
2019-06-10T01:47:01.027Z,101905.55
2019-06-10T01:49:33.878Z,101901.84
2019-06-10T01:52:04.966Z,101900.73
2019-06-10T01:54:36.958Z,101906.79
2019-06-10T01:57:10.979Z,101900.55
2019-06-10T01:59:41.331Z,101902.39
2019-06-10T02:02:17.721Z,101895.96
2019-06-10T02:04:48.300Z,101886.14
2019-06-10T02:07:20.423Z,101888.05
2019-06-10T02:09:51.776Z,101880.13
2019-06-10T02:12:24.074Z,101881.91
2019-06-10T02:14:54.708Z,101881.81
2019-06-10T02:17:25.056Z,101880.84
2019-06-10T02:19:55.250Z,101877.98
2019-06-10T02:22:25.554Z,101874.98
2019-06-10T02:24:55.734Z,101872.70
2019-06-10T02:27:26.224Z,101870.98
2019-06-10T02:29:56.512Z,101864.69
2019-06-10T02:32:34.981Z,101859.83
2019-06-10T02:35:10.492Z,101858.35
2019-06-10T02:37:33.859Z,101857.87
2019-06-10T02:40:04.428Z,101861.39
2019-06-10T02:42:39.059Z,101857.97
2019-06-10T02:45:13.818Z,101855.34
2019-06-10T02:47:44.379Z,101852.62
2019-06-10T02:50:20.924Z,101851.48
2019-06-10T02:52:47.008Z,101843.28
2019-06-10T02:55:19.544Z,101836.42
2019-06-10T02:57:49.330Z,101835.80
2019-06-10T03:00:26.733Z,101835.27
2019-06-10T03:02:53.075Z,101827.75
2019-06-10T03:05:30.582Z,101829.65
2019-06-10T03:07:55.697Z,101832.18
2019-06-10T03:10:31.024Z,101832.09
2019-06-10T03:12:58.210Z,101828.30
2019-06-10T03:15:28.431Z,101827.77
2019-06-10T03:17:58.697Z,101821.79
2019-06-10T03:20:28.993Z,101833.27
2019-06-10T03:22:59.450Z,101831.83
2019-06-10T03:25:30.265Z,101832.31
2019-06-10T03:28:03.148Z,101826.74
2019-06-10T03:30:46.717Z,101827.50
2019-06-10T03:33:05.959Z,101824.30
2019-06-10T03:35:36.476Z,101816.20
2019-06-10T03:38:06.860Z,101815.95
2019-06-10T03:40:37.038Z,101810.24
2019-06-10T03:43:07.527Z,101816.20
2019-06-10T03:45:38.037Z,101805.33
2019-06-10T03:48:08.575Z,101808.17
2019-06-10T03:50:38.792Z,101802.87
2019-06-10T03:53:09.047Z,101797.45
2019-06-10T03:55:39.356Z,101794.20
2019-06-10T03:58:09.804Z,101795.02
2019-06-10T04:00:42.840Z,101790.45
2019-06-10T04:03:12.401Z,101788.35
2019-06-10T04:05:45.027Z,101780.44
2019-06-10T04:08:17.372Z,101780.44
2019-06-10T04:10:47.799Z,101777.95
2019-06-10T04:13:19.499Z,101782.71
2019-06-10T04:15:49.769Z,101771.99
2019-06-10T04:18:20.058Z,101771.73
2019-06-10T04:20:52.751Z,101771.65
2019-06-10T04:23:24.232Z,101771.65
2019-06-10T04:26:04.885Z,101768.36
2019-06-10T04:28:34.615Z,101768.02
2019-06-10T04:31:05.166Z,101764.94
2019-06-10T04:33:52.322Z,101764.16
2019-06-10T04:36:24.524Z,101760.20
2019-06-10T04:38:53.832Z,101754.82
2019-06-10T04:41:28.027Z,101754.04
2019-06-10T04:44:02.442Z,101749.89
2019-06-10T04:46:32.608Z,101748.34
2019-06-10T04:49:03.413Z,101743.04
2019-06-10T04:51:33.668Z,101741.09
2019-06-10T04:54:04.085Z,101745.68
2019-06-10T04:56:34.347Z,101745.74
2019-06-10T04:59:05.329Z,101737.16
2019-06-10T05:01:35.870Z,101741.91
2019-06-10T05:04:07.206Z,101743.29
2019-06-10T05:06:38.535Z,101732.50
2019-06-10T05:09:12.207Z,101722.16
2019-06-10T05:11:43.193Z,101722.33
2019-06-10T05:14:13.976Z,101725.39
2019-06-10T05:16:44.448Z,101720.28
2019-06-10T05:19:14.712Z,101713.60
2019-06-10T05:21:45.247Z,101717.22
2019-06-10T05:24:15.619Z,101711.98
2019-06-10T05:26:46.041Z,101715.03
2019-06-10T05:29:16.609Z,101710.96
2019-06-10T05:31:47.173Z,101707.61
2019-06-10T05:34:18.599Z,101704.11
2019-06-10T05:36:48.853Z,101709.95
2019-06-10T05:39:19.162Z,101705.73
2019-06-10T05:41:50.846Z,101708.73
2019-06-10T05:44:25.235Z,101714.27
2019-06-10T05:46:55.695Z,101719.14
2019-06-10T05:49:27.410Z,101722.19
2019-06-10T05:51:58.170Z,101718.03
2019-06-10T05:54:29.097Z,101713.23
2019-06-10T05:56:59.527Z,101708.66
2019-06-10T05:59:29.752Z,101709.50
2019-06-10T06:02:02.222Z,101711.84
2019-06-10T06:04:34.250Z,101705.51
2019-06-10T06:07:27.059Z,101688.17
2019-06-10T06:10:08.735Z,101690.75
2019-06-10T06:12:42.519Z,101681.13
2019-06-10T06:15:16.664Z,101680.68
2019-06-10T06:18:03.179Z,101685.20
2019-06-10T06:20:19.703Z,101693.23
2019-06-10T06:22:52.226Z,101686.14
2019-06-10T06:25:27.667Z,101687.52
2019-06-10T06:27:59.703Z,101690.56
2019-06-10T06:30:43.843Z,101687.59
2019-06-10T06:37:15.516Z,101683.33
2019-06-10T06:39:49.097Z,101682.72
2019-06-10T06:42:23.144Z,101681.91
2019-06-10T06:44:54.065Z,101688.91
2019-06-10T06:47:28.180Z,101682.46
2019-06-10T06:50:12.912Z,101677.89
2019-06-10T06:53:19.012Z,101682.02
2019-06-10T06:55:19.991Z,101672.62
2019-06-10T06:57:52.880Z,101669.28
2019-06-10T07:01:03.774Z,101661.88
2019-06-10T07:03:45.128Z,101668.61
2019-06-10T07:06:15.908Z,101671.39
2019-06-10T07:09:00.400Z,101668.95
2019-06-10T07:11:26.151Z,101665.47
2019-06-10T07:13:59.873Z,101665.14
2019-06-10T07:16:36.145Z,101674.28
2019-06-10T07:19:06.582Z,101670.91
2019-06-10T07:22:02.681Z,101670.52
2019-06-10T07:24:23.137Z,101673.66
2019-06-10T07:26:55.203Z,101667.16
2019-06-10T07:29:27.803Z,101671.69
2019-06-10T07:31:57.975Z,101673.58
2019-06-10T07:34:28.661Z,101672.69
2019-06-10T07:37:02.605Z,101667.86
2019-06-10T07:39:34.680Z,101660.30
2019-06-10T07:42:07.164Z,101653.42
2019-06-10T07:44:37.565Z,101644.88
2019-06-10T07:47:09.130Z,101643.61
2019-06-10T07:49:44.320Z,101641.62
2019-06-10T07:52:19.520Z,101637.13
2019-06-10T07:54:46.112Z,101640.37
2019-06-10T07:57:16.307Z,101629.55
2019-06-10T07:59:47.570Z,101631.91
2019-06-10T08:02:17.743Z,101622.55
2019-06-10T08:04:49.567Z,101633.01
2019-06-10T08:07:19.771Z,101635.94
2019-06-10T08:09:49.912Z,101626.91
2019-06-10T08:12:20.216Z,101629.77
2019-06-10T08:14:53.025Z,101626.72
2019-06-10T08:17:22.481Z,101615.89
2019-06-10T08:19:54.373Z,101615.19
2019-06-10T08:22:33.208Z,101610.28
2019-06-10T08:24:56.753Z,101609.25
2019-06-10T08:27:26.954Z,101613.98
2019-06-10T08:30:14.149Z,101602.97
2019-06-10T08:32:33.496Z,101597.84
2019-06-10T08:35:04.625Z,101592.49
2019-06-10T08:37:36.287Z,101587.30
2019-06-10T08:40:07.515Z,101586.77
2019-06-10T08:42:38.811Z,101572.84
2019-06-10T08:45:09.326Z,101575.59
2019-06-10T08:47:39.425Z,101569.25
2019-06-10T08:50:09.626Z,101566.89
2019-06-10T08:52:57.606Z,101564.05
2019-06-10T08:55:14.905Z,101562.86
2019-06-10T08:57:48.838Z,101557.69
2019-06-10T09:00:18.772Z,101562.41
2019-06-10T09:02:53.215Z,101544.12
2019-06-10T09:05:23.236Z,101545.50
2019-06-10T09:07:54.595Z,101544.20
2019-06-10T09:10:24.815Z,101548.91
2019-06-10T09:12:55.474Z,101554.69
2019-06-10T09:15:27.225Z,101556.73
2019-06-10T09:17:57.340Z,101553.53
2019-06-10T09:20:30.330Z,101559.95
2019-06-10T09:23:18.448Z,101554.31
2019-06-10T09:25:35.859Z,101556.31
2019-06-10T09:28:06.125Z,101550.54
2019-06-10T09:30:36.494Z,101547.66
2019-06-10T09:33:06.643Z,101541.87
2019-06-10T09:35:36.867Z,101533.27
2019-06-10T09:38:07.013Z,101538.48
2019-06-10T09:41:01.240Z,101539.01
2019-06-10T09:43:26.159Z,101551.30
2019-06-10T09:45:56.870Z,101543.02
2019-06-10T09:48:50.288Z,101548.55
2019-06-10T09:52:13.324Z,101547.22
2019-06-10T09:54:47.246Z,101541.63
2019-06-10T09:57:14.653Z,101540.23
2019-06-10T09:59:49.686Z,101543.34
2019-06-10T10:02:16.838Z,101527.02
2019-06-10T10:04:50.962Z,101530.62
2019-06-10T10:07:19.164Z,101527.89
2019-06-10T10:09:51.979Z,101516.77
2019-06-10T10:12:22.765Z,101515.27
2019-06-10T10:14:56.148Z,101512.27
2019-06-10T10:17:26.173Z,101503.20
2019-06-10T10:19:57.138Z,101499.66
2019-06-10T10:22:27.961Z,101503.91
2019-06-10T10:25:06.955Z,101503.09
2019-06-10T10:27:38.132Z,101502.22
2019-06-10T10:30:08.396Z,101495.22
2019-06-10T10:32:45.283Z,101495.81
2019-06-10T10:35:13.480Z,101485.64
2019-06-10T10:37:44.580Z,101475.29
2019-06-10T10:40:16.445Z,101470.55
2019-06-10T10:42:52.206Z,101480.16
2019-06-10T10:45:22.686Z,101473.42
2019-06-10T10:47:57.437Z,101472.49
2019-06-10T10:50:27.670Z,101463.59
2019-06-10T10:52:58.183Z,101459.55
2019-06-10T10:55:28.718Z,101459.73
2019-06-10T10:57:59.179Z,101457.63
2019-06-10T11:00:41.603Z,101447.48
2019-06-10T11:03:13.400Z,101440.84
2019-06-10T11:05:52.333Z,101434.02
2019-06-10T11:08:24.006Z,101433.09
2019-06-10T11:10:59.503Z,101439.92
2019-06-10T11:13:43.377Z,101436.06
2019-06-10T11:16:13.724Z,101429.66
2019-06-10T11:18:45.213Z,101422.77
2019-06-10T11:21:15.442Z,101422.86
2019-06-10T11:23:46.213Z,101410.48
2019-06-10T11:26:16.586Z,101415.36
2019-06-10T11:28:54.433Z,101415.60
2019-06-10T11:31:23.019Z,101418.34
2019-06-10T11:33:55.962Z,101420.48
2019-06-10T11:36:25.430Z,101413.23
2019-06-10T11:38:59.021Z,101411.97
2019-06-10T11:41:27.972Z,101411.89
2019-06-10T11:43:59.400Z,101414.06
2019-06-10T11:46:32.354Z,101409.55
2019-06-10T11:49:03.833Z,101404.28
2019-06-10T11:51:34.295Z,101407.69
2019-06-10T11:54:04.451Z,101403.82
2019-06-10T11:56:34.600Z,101406.34
2019-06-10T11:59:09.389Z,101405.27
2019-06-10T12:01:36.906Z,101396.61
2019-06-10T12:04:07.210Z,101395.96
2019-06-10T12:06:37.580Z,101386.23
2019-06-10T12:09:09.293Z,101382.06
2019-06-10T12:11:39.731Z,101369.83
2019-06-10T12:14:12.660Z,101361.84
2019-06-10T12:19:14.193Z,101348.13
2019-06-10T12:21:44.290Z,101331.52
2019-06-10T12:24:14.456Z,101326.38
2019-06-10T12:26:47.647Z,101323.30
2019-06-10T12:29:17.885Z,101324.28
2019-06-10T12:31:48.072Z,101321.45
2019-06-10T12:34:19.488Z,101319.24
2019-06-10T12:36:50.472Z,101319.59
2019-06-10T12:39:22.866Z,101324.84
2019-06-10T12:41:56.724Z,101326.47
2019-06-10T12:44:25.333Z,101329.41
2019-06-10T12:46:57.970Z,101332.69
2019-06-10T12:49:27.537Z,101329.95
2019-06-10T12:51:59.730Z,101326.73
2019-06-10T12:54:32.639Z,101334.69
2019-06-10T12:57:06.352Z,101331.36
2019-06-10T12:59:34.966Z,101326.11
2019-06-10T13:02:16.719Z,101322.80
2019-06-10T13:04:39.350Z,101313.42
2019-06-10T13:07:12.579Z,101324.03
2019-06-10T13:09:45.802Z,101320.02
2019-06-10T13:12:16.045Z,101309.36
2019-06-10T13:14:46.202Z,101309.09
2019-06-10T13:17:16.325Z,101308.15
2019-06-10T13:19:46.585Z,101301.31
2019-06-10T13:22:16.786Z,101297.38
2019-06-10T13:24:49.475Z,101293.59
2019-06-10T13:27:19.695Z,101294.08
2019-06-10T13:29:49.988Z,101284.30
2019-06-10T13:32:20.261Z,101278.03
2019-06-10T13:34:52.638Z,101265.39
2019-06-10T13:37:22.828Z,101276.48
2019-06-10T13:39:53.328Z,101263.91
2019-06-10T13:42:23.735Z,101268.63
2019-06-10T13:44:54.053Z,101265.14
2019-06-10T13:47:26.041Z,101265.67
2019-06-10T13:49:58.989Z,101257.54
2019-06-10T13:52:32.156Z,101263.61
2019-06-10T13:55:03.994Z,101249.63
2019-06-10T13:57:34.689Z,101247.02
2019-06-10T14:00:07.944Z,101241.23
2019-06-10T14:02:37.406Z,101239.39
2019-06-10T14:05:12.912Z,101232.70
2019-06-10T14:07:39.600Z,101232.70
2019-06-10T14:10:17.840Z,101234.18
2019-06-10T14:12:48.678Z,101226.91
2019-06-10T14:15:17.126Z,101227.95
2019-06-10T14:17:47.482Z,101228.16
2019-06-10T14:20:17.987Z,101225.44
2019-06-10T14:22:48.143Z,101229.77
2019-06-10T14:25:26.496Z,101233.58
2019-06-10T14:27:56.698Z,101220.53
2019-06-10T14:30:26.834Z,101228.72
2019-06-10T14:32:57.062Z,101232.72
2019-06-10T14:35:27.238Z,101232.22
2019-06-10T14:38:06.349Z,101234.17
2019-06-10T14:40:36.753Z,101232.41
2019-06-10T14:43:15.007Z,101243.73
2019-06-10T14:45:44.955Z,101238.08
2019-06-10T14:48:17.458Z,101242.33
2019-06-10T14:50:47.148Z,101242.53
2019-06-10T14:53:18.798Z,101244.06
2019-06-10T14:55:53.501Z,101240.97
2019-06-10T14:58:24.026Z,101236.47
2019-06-10T15:00:54.796Z,101229.55
2019-06-10T15:03:24.978Z,101227.80
2019-06-10T15:05:55.144Z,101222.52
2019-06-10T15:08:25.337Z,101221.34
2019-06-10T15:10:57.273Z,101217.95
2019-06-10T15:13:27.523Z,101208.92
2019-06-10T15:15:57.712Z,101216.94
2019-06-10T15:18:29.013Z,101215.25
2019-06-10T15:20:59.142Z,101211.81
2019-06-10T15:23:29.273Z,101211.05
2019-06-10T15:25:59.327Z,101215.66
2019-06-10T15:28:29.418Z,101208.66
2019-06-10T15:30:59.623Z,101211.64
2019-06-10T15:33:32.718Z,101197.74
2019-06-10T15:36:04.777Z,101185.96
2019-06-10T15:38:35.197Z,101199.14
2019-06-10T15:41:06.326Z,101191.65
2019-06-10T15:43:36.549Z,101186.24
2019-06-10T15:46:07.061Z,101175.94
2019-06-10T15:48:37.361Z,101183.20
2019-06-10T15:51:07.571Z,101184.27
2019-06-10T15:53:37.816Z,101182.40
2019-06-10T15:56:38.665Z,101179.21
2019-06-10T15:59:03.911Z,101169.00
2019-06-10T16:01:34.319Z,101163.92
2019-06-10T16:04:04.605Z,101167.39
2019-06-10T16:06:34.749Z,101160.67
2019-06-10T16:09:07.825Z,101162.07
2019-06-10T16:11:40.220Z,101157.48
2019-06-10T16:14:10.859Z,101160.58
2019-06-10T16:16:43.378Z,101160.88
2019-06-10T16:19:15.054Z,101152.31
2019-06-10T16:21:46.668Z,101136.62
2019-06-10T16:24:18.642Z,101136.05
2019-06-10T16:26:48.936Z,101129.08
2019-06-10T16:29:21.153Z,101133.69
2019-06-10T16:31:52.905Z,101143.84
2019-06-10T16:34:27.333Z,101132.67
2019-06-10T16:36:55.220Z,101117.86
2019-06-10T16:39:26.838Z,101121.42
2019-06-10T16:41:57.132Z,101119.20
2019-06-10T16:44:28.261Z,101119.34
2019-06-10T16:46:58.600Z,101128.34
2019-06-10T16:49:29.737Z,101132.37
2019-06-10T16:52:02.718Z,101134.69
2019-06-10T16:54:32.989Z,101128.16
2019-06-10T16:57:03.965Z,101125.56
2019-06-10T16:59:34.292Z,101124.22
2019-06-10T17:02:04.431Z,101114.46
2019-06-10T17:05:05.578Z,101110.13
2019-06-10T17:07:14.478Z,101109.36
2019-06-10T17:09:44.591Z,101123.55
2019-06-10T17:12:17.831Z,101126.73
2019-06-10T17:14:48.258Z,101122.90
2019-06-10T17:17:18.624Z,101118.19
2019-06-10T17:19:48.833Z,101121.08
2019-06-10T17:22:27.355Z,101130.55
2019-06-10T17:24:56.962Z,101134.77
2019-06-10T17:27:27.938Z,101125.05
2019-06-10T17:29:58.333Z,101141.17
2019-06-10T17:32:30.283Z,101143.95
2019-06-10T17:35:02.322Z,101160.45
2019-06-10T17:37:33.734Z,101177.11
2019-06-10T17:40:05.562Z,101180.09
2019-06-10T17:42:38.363Z,101177.88
2019-06-10T17:45:09.075Z,101180.48
2019-06-10T17:47:42.677Z,101179.27
2019-06-10T17:50:14.493Z,101182.84
2019-06-10T17:52:44.946Z,101185.81
2019-06-10T17:55:15.622Z,101195.12
2019-06-10T17:57:47.558Z,101182.61
2019-06-10T18:00:18.023Z,101182.25
2019-06-10T18:02:49.846Z,101187.59
2019-06-10T18:05:22.058Z,101181.59
2019-06-10T18:07:53.160Z,101184.00
2019-06-10T18:10:24.050Z,101184.12
2019-06-10T18:12:54.482Z,101181.80
2019-06-10T18:15:25.981Z,101171.04
2019-06-10T18:17:56.607Z,101168.04
2019-06-10T18:20:28.841Z,101161.12
2019-06-10T18:23:02.869Z,101148.41
2019-06-10T18:25:36.899Z,101139.27
2019-06-10T18:28:07.373Z,101136.86
2019-06-10T18:30:37.827Z,101126.55
2019-06-10T18:33:08.177Z,101110.84
2019-06-10T18:35:39.552Z,101111.86
2019-06-10T18:38:09.854Z,101107.70
2019-06-10T18:40:42.802Z,101105.88
2019-06-10T18:43:12.182Z,101114.60
2019-06-10T18:45:42.577Z,101126.31
2019-06-10T18:48:12.833Z,101128.86
2019-06-10T18:50:43.881Z,101133.45
2019-06-10T18:53:14.181Z,101134.03
2019-06-10T18:55:45.957Z,101139.37
2019-06-10T18:58:16.539Z,101144.34
2019-06-10T19:00:59.145Z,101152.23
2019-06-10T19:03:23.415Z,101152.00
2019-06-10T19:05:53.966Z,101147.50
2019-06-10T19:08:25.770Z,101137.12
2019-06-10T19:10:56.317Z,101147.23
2019-06-10T19:13:38.756Z,101156.91
2019-06-10T19:16:16.515Z,101149.80
2019-06-10T19:18:57.758Z,101141.06
2019-06-10T19:21:44.672Z,101130.18
2019-06-10T19:24:36.322Z,101141.03
2019-06-10T19:27:11.663Z,101140.28
2019-06-10T19:29:54.610Z,101151.87
2019-06-10T19:32:23.542Z,101163.95
2019-06-10T19:34:57.643Z,101172.72
2019-06-10T19:37:37.422Z,101180.52
2019-06-10T19:40:19.112Z,101176.65
2019-06-10T19:42:53.452Z,101180.90
2019-06-10T19:45:36.402Z,101184.36
2019-06-10T19:48:17.841Z,101176.93
2019-06-10T19:50:59.762Z,101181.68
2019-06-10T19:54:12.825Z,101182.69
2019-06-10T19:57:41.832Z,101184.50
2019-06-10T20:00:03.883Z,101183.93
2019-06-10T20:02:37.922Z,101181.05
2019-06-10T20:05:07.444Z,101188.52
2019-06-10T20:07:44.144Z,101187.29
2019-06-10T20:10:14.984Z,101181.96
2019-06-10T20:12:48.890Z,101181.84
2019-06-10T20:15:24.782Z,101186.73
2019-06-10T20:17:55.630Z,101187.88
2019-06-10T20:20:25.954Z,101188.52
2019-06-10T20:22:58.612Z,101199.00
2019-06-10T20:25:29.106Z,101194.22
2019-06-10T20:27:59.816Z,101199.19
2019-06-10T20:30:33.334Z,101194.20
2019-06-10T20:33:04.225Z,101199.93
2019-06-10T20:35:35.022Z,101197.61
2019-06-10T20:38:37.900Z,101186.50
2019-06-10T20:40:47.539Z,101191.38
2019-06-10T20:43:25.302Z,101194.27
2019-06-10T20:46:05.798Z,101201.00
2019-06-10T20:48:34.930Z,101197.74
2019-06-10T20:51:06.062Z,101199.56
2019-06-10T20:53:40.114Z,101203.91
2019-06-10T20:56:13.645Z,101206.49
2019-06-10T20:58:46.458Z,101194.78
2019-06-10T21:01:17.302Z,101187.42
2019-06-10T21:03:51.019Z,101190.20
2019-06-10T21:06:24.539Z,101189.50
2019-06-10T21:08:56.236Z,101187.91
2019-06-10T21:11:27.476Z,101181.82
2019-06-10T21:13:58.208Z,101172.65
2019-06-10T21:16:28.600Z,101168.09
2019-06-10T21:18:59.167Z,101173.38
2019-06-10T21:21:29.432Z,101171.40
2019-06-10T21:24:02.095Z,101171.22
2019-06-10T21:26:32.534Z,101152.47
2019-06-10T21:29:03.806Z,101154.28
2019-06-10T21:31:35.099Z,101147.20
2019-06-10T21:34:05.352Z,101146.77
2019-06-10T21:36:35.468Z,101148.28
2019-06-10T21:39:07.742Z,101150.70
2019-06-10T21:41:37.928Z,101148.95
2019-06-10T21:44:08.340Z,101146.61
2019-06-10T21:46:44.469Z,101141.30
2019-06-10T21:49:18.026Z,101151.23
2019-06-10T21:51:50.180Z,101159.70
2019-06-10T21:54:24.134Z,101163.25
2019-06-10T21:56:55.439Z,101161.77
2019-06-10T21:59:25.744Z,101167.59
2019-06-10T22:02:02.304Z,101167.72
2019-06-10T22:04:32.621Z,101171.81
2019-06-10T22:07:03.273Z,101178.41
2019-06-10T22:09:34.703Z,101173.05
2019-06-10T22:12:04.985Z,101165.00
2019-06-10T22:14:35.353Z,101170.98
2019-06-10T22:17:05.493Z,101164.30
2019-06-10T22:19:35.805Z,101159.27
2019-06-10T22:22:06.053Z,101149.45
2019-06-10T22:24:36.319Z,101151.86
2019-06-10T22:27:08.081Z,101150.51
2019-06-10T22:29:38.674Z,101152.72
2019-06-10T22:32:12.844Z,101158.23
2019-06-10T22:34:42.489Z,101155.00
2019-06-10T22:37:12.793Z,101144.47
2019-06-10T22:39:43.050Z,101138.09
2019-06-10T22:42:13.280Z,101130.61
2019-06-10T22:44:45.694Z,101129.81
2019-06-10T22:47:18.623Z,101128.21
2019-06-10T22:49:50.055Z,101132.82
2019-06-10T22:52:22.958Z,101131.54
2019-06-10T22:54:55.070Z,101126.39
2019-06-10T22:57:24.150Z,101128.02
2019-06-10T22:59:57.746Z,101121.59
2019-06-10T23:02:28.610Z,101112.69
2019-06-10T23:05:01.410Z,101117.44
2019-06-10T23:07:32.867Z,101114.14
2019-06-10T23:10:03.295Z,101116.08
2019-06-10T23:12:33.658Z,101116.51
2019-06-10T23:15:04.167Z,101114.22
2019-06-10T23:17:35.452Z,101107.47
2019-06-10T23:20:06.020Z,101112.99
2019-06-10T23:22:36.240Z,101113.98
2019-06-10T23:25:07.671Z,101118.52
2019-06-10T23:27:40.969Z,101114.16
2019-06-10T23:30:11.784Z,101126.21
2019-06-10T23:32:42.302Z,101121.84
2019-06-10T23:35:12.726Z,101121.01
2019-06-10T23:37:42.997Z,101118.23
2019-06-10T23:40:13.431Z,101117.68
2019-06-10T23:42:45.678Z,101122.27
2019-06-10T23:45:16.054Z,101121.63
2019-06-10T23:47:46.354Z,101110.91
2019-06-10T23:50:16.649Z,101107.73
2019-06-10T23:52:46.884Z,101098.06
2019-06-10T23:55:17.088Z,101090.80
2019-06-10T23:57:49.853Z,101095.08
